sensor_id;sensor_type;location;lat;lon;timestamp;temperature;humidity
26595;DHT22;14238;49.496;8.154;2023-07-09T00:01:51;18.50;99.90
26595;DHT22;14238;49.496;8.154;2023-07-09T00:04:18;18.50;99.90
26595;DHT22;14238;49.496;8.154;2023-07-09T00:06:44;18.50;99.90
26595;DHT22;14238;49.496;8.154;2023-07-09T00:09:15;18.50;99.90
26595;DHT22;14238;49.496;8.154;2023-07-09T00:11:42;18.50;99.90
26595;DHT22;14238;49.496;8.154;2023-07-09T00:14:09;18.20;99.90
26595;DHT22;14238;49.496;8.154;2023-07-09T00:16:35;18.30;99.90
26595;DHT22;14238;49.496;8.154;2023-07-09T00:19:03;18.30;99.90
26595;DHT22;14238;49.496;8.154;2023-07-09T00:21:28;18.30;99.90
26595;DHT22;14238;49.496;8.154;2023-07-09T00:24:00;18.30;99.90
26595;DHT22;14238;49.496;8.154;2023-07-09T00:26:30;18.30;99.90
26595;DHT22;14238;49.496;8.154;2023-07-09T00:28:56;18.30;99.90
26595;DHT22;14238;49.496;8.154;2023-07-09T00:31:22;18.40;99.90
26595;DHT22;14238;49.496;8.154;2023-07-09T00:33:48;18.30;99.90
26595;DHT22;14238;49.496;8.154;2023-07-09T00:36:27;18.10;99.90
26595;DHT22;14238;49.496;8.154;2023-07-09T00:38:54;18.20;99.90
26595;DHT22;14238;49.496;8.154;2023-07-09T00:41:22;18.20;99.90
26595;DHT22;14238;49.496;8.154;2023-07-09T00:43:50;18.30;99.90
26595;DHT22;14238;49.496;8.154;2023-07-09T00:51:20;18.20;99.90
26595;DHT22;14238;49.496;8.154;2023-07-09T00:53:50;18.30;99.90
26595;DHT22;14238;49.496;8.154;2023-07-09T00:56:20;18.40;99.90
26595;DHT22;14238;49.496;8.154;2023-07-09T00:58:51;18.30;99.90
26595;DHT22;14238;49.496;8.154;2023-07-09T01:01:19;18.20;99.90
26595;DHT22;14238;49.496;8.154;2023-07-09T01:03:48;18.20;99.90
26595;DHT22;14238;49.496;8.154;2023-07-09T01:06:19;18.10;99.90
26595;DHT22;14238;49.496;8.154;2023-07-09T01:08:45;18.20;99.90
26595;DHT22;14238;49.496;8.154;2023-07-09T01:11:19;18.20;99.90
26595;DHT22;14238;49.496;8.154;2023-07-09T01:13:49;18.30;99.90
26595;DHT22;14238;49.496;8.154;2023-07-09T01:16:17;18.30;99.90
26595;DHT22;14238;49.496;8.154;2023-07-09T01:18:42;18.20;99.90
26595;DHT22;14238;49.496;8.154;2023-07-09T01:21:09;18.00;99.90
26595;DHT22;14238;49.496;8.154;2023-07-09T01:23:44;18.00;99.90
26595;DHT22;14238;49.496;8.154;2023-07-09T01:26:19;17.90;99.90
26595;DHT22;14238;49.496;8.154;2023-07-09T01:28:46;17.90;99.90
26595;DHT22;14238;49.496;8.154;2023-07-09T01:31:13;17.90;99.90
26595;DHT22;14238;49.496;8.154;2023-07-09T01:33:43;18.00;99.90
26595;DHT22;14238;49.496;8.154;2023-07-09T01:36:15;17.90;99.90
26595;DHT22;14238;49.496;8.154;2023-07-09T01:38:41;18.00;99.90
26595;DHT22;14238;49.496;8.154;2023-07-09T01:41:07;17.90;99.90
26595;DHT22;14238;49.496;8.154;2023-07-09T01:43:33;18.00;99.90
26595;DHT22;14238;49.496;8.154;2023-07-09T01:45:59;18.00;99.90
26595;DHT22;14238;49.496;8.154;2023-07-09T01:48:25;18.20;99.90
26595;DHT22;14238;49.496;8.154;2023-07-09T01:50:52;18.20;99.90
26595;DHT22;14238;49.496;8.154;2023-07-09T01:53:23;18.10;99.90
26595;DHT22;14238;49.496;8.154;2023-07-09T01:55:50;18.00;99.90
26595;DHT22;14238;49.496;8.154;2023-07-09T01:58:16;18.00;99.90
26595;DHT22;14238;49.496;8.154;2023-07-09T02:00:42;18.00;99.90
26595;DHT22;14238;49.496;8.154;2023-07-09T02:03:07;18.00;99.90
26595;DHT22;14238;49.496;8.154;2023-07-09T02:05:35;17.80;99.90
26595;DHT22;14238;49.496;8.154;2023-07-09T02:08:02;17.90;99.90
26595;DHT22;14238;49.496;8.154;2023-07-09T02:10:28;17.80;99.90
26595;DHT22;14238;49.496;8.154;2023-07-09T02:12:54;17.70;99.90
26595;DHT22;14238;49.496;8.154;2023-07-09T02:15:19;17.70;99.90
26595;DHT22;14238;49.496;8.154;2023-07-09T02:17:45;17.80;99.90
26595;DHT22;14238;49.496;8.154;2023-07-09T02:20:11;17.70;99.90
26595;DHT22;14238;49.496;8.154;2023-07-09T02:22:38;17.70;99.90
26595;DHT22;14238;49.496;8.154;2023-07-09T02:25:05;17.60;99.90
26595;DHT22;14238;49.496;8.154;2023-07-09T02:27:32;17.70;99.90
26595;DHT22;14238;49.496;8.154;2023-07-09T02:29:58;17.60;99.90
26595;DHT22;14238;49.496;8.154;2023-07-09T02:32:26;17.70;99.90
26595;DHT22;14238;49.496;8.154;2023-07-09T02:34:52;17.70;99.90
26595;DHT22;14238;49.496;8.154;2023-07-09T02:37:23;17.60;99.90
26595;DHT22;14238;49.496;8.154;2023-07-09T02:39:49;17.60;99.90
26595;DHT22;14238;49.496;8.154;2023-07-09T02:42:17;17.50;99.90
26595;DHT22;14238;49.496;8.154;2023-07-09T02:44:43;17.60;99.90
26595;DHT22;14238;49.496;8.154;2023-07-09T02:47:10;17.60;99.90
26595;DHT22;14238;49.496;8.154;2023-07-09T02:49:35;17.70;99.90
26595;DHT22;14238;49.496;8.154;2023-07-09T02:52:01;17.60;99.90
26595;DHT22;14238;49.496;8.154;2023-07-09T02:54:27;17.60;99.90
26595;DHT22;14238;49.496;8.154;2023-07-09T02:56:53;17.70;99.90
26595;DHT22;14238;49.496;8.154;2023-07-09T02:59:19;17.60;99.90
26595;DHT22;14238;49.496;8.154;2023-07-09T03:01:45;17.60;99.90
26595;DHT22;14238;49.496;8.154;2023-07-09T03:04:11;17.50;99.90
26595;DHT22;14238;49.496;8.154;2023-07-09T03:06:37;17.50;99.90
26595;DHT22;14238;49.496;8.154;2023-07-09T03:09:04;17.40;99.90
26595;DHT22;14238;49.496;8.154;2023-07-09T03:11:31;17.40;99.90
26595;DHT22;14238;49.496;8.154;2023-07-09T03:13:58;17.40;99.90
26595;DHT22;14238;49.496;8.154;2023-07-09T03:16:26;17.50;99.90
26595;DHT22;14238;49.496;8.154;2023-07-09T03:18:53;17.40;99.90
26595;DHT22;14238;49.496;8.154;2023-07-09T03:21:19;17.50;99.90
26595;DHT22;14238;49.496;8.154;2023-07-09T03:23:45;17.50;99.90
26595;DHT22;14238;49.496;8.154;2023-07-09T03:26:11;17.40;99.90
26595;DHT22;14238;49.496;8.154;2023-07-09T03:28:36;17.40;99.90
26595;DHT22;14238;49.496;8.154;2023-07-09T03:31:02;17.30;99.90
26595;DHT22;14238;49.496;8.154;2023-07-09T03:33:28;17.40;99.90
26595;DHT22;14238;49.496;8.154;2023-07-09T03:35:54;17.20;99.90
26595;DHT22;14238;49.496;8.154;2023-07-09T03:38:19;17.40;99.90
26595;DHT22;14238;49.496;8.154;2023-07-09T03:40:45;17.30;99.90
26595;DHT22;14238;49.496;8.154;2023-07-09T03:43:11;17.40;99.90
26595;DHT22;14238;49.496;8.154;2023-07-09T03:45:37;17.40;99.90
26595;DHT22;14238;49.496;8.154;2023-07-09T03:48:04;17.40;99.90
26595;DHT22;14238;49.496;8.154;2023-07-09T03:50:30;17.40;99.90
26595;DHT22;14238;49.496;8.154;2023-07-09T03:52:56;17.40;99.90
26595;DHT22;14238;49.496;8.154;2023-07-09T03:55:22;17.40;99.90
26595;DHT22;14238;49.496;8.154;2023-07-09T03:57:53;17.40;99.90
26595;DHT22;14238;49.496;8.154;2023-07-09T04:00:18;17.40;99.90
26595;DHT22;14238;49.496;8.154;2023-07-09T04:02:44;17.40;99.90
26595;DHT22;14238;49.496;8.154;2023-07-09T04:05:10;17.40;99.90
26595;DHT22;14238;49.496;8.154;2023-07-09T04:07:36;17.50;99.90
26595;DHT22;14238;49.496;8.154;2023-07-09T04:10:02;17.40;99.90
26595;DHT22;14238;49.496;8.154;2023-07-09T04:12:28;17.50;99.90
26595;DHT22;14238;49.496;8.154;2023-07-09T04:14:53;17.50;99.90
26595;DHT22;14238;49.496;8.154;2023-07-09T04:17:19;17.60;99.90
26595;DHT22;14238;49.496;8.154;2023-07-09T04:19:46;17.60;99.90
26595;DHT22;14238;49.496;8.154;2023-07-09T04:22:11;17.60;99.90
26595;DHT22;14238;49.496;8.154;2023-07-09T04:24:37;17.70;99.90
26595;DHT22;14238;49.496;8.154;2023-07-09T04:27:02;17.70;99.90
26595;DHT22;14238;49.496;8.154;2023-07-09T04:29:32;17.80;99.90
26595;DHT22;14238;49.496;8.154;2023-07-09T04:32:19;17.80;99.90
26595;DHT22;14238;49.496;8.154;2023-07-09T04:34:45;17.90;99.90
26595;DHT22;14238;49.496;8.154;2023-07-09T04:37:12;18.00;99.90
26595;DHT22;14238;49.496;8.154;2023-07-09T04:39:38;18.00;99.90
26595;DHT22;14238;49.496;8.154;2023-07-09T04:42:05;18.10;99.90
26595;DHT22;14238;49.496;8.154;2023-07-09T04:44:32;18.10;99.90
26595;DHT22;14238;49.496;8.154;2023-07-09T04:46:57;18.10;99.90
26595;DHT22;14238;49.496;8.154;2023-07-09T04:49:23;18.20;99.90
26595;DHT22;14238;49.496;8.154;2023-07-09T04:51:48;18.30;99.90
26595;DHT22;14238;49.496;8.154;2023-07-09T04:54:14;18.30;99.90
26595;DHT22;14238;49.496;8.154;2023-07-09T04:56:41;18.40;99.90
26595;DHT22;14238;49.496;8.154;2023-07-09T04:59:09;18.40;99.90
26595;DHT22;14238;49.496;8.154;2023-07-09T05:01:35;18.50;99.90
26595;DHT22;14238;49.496;8.154;2023-07-09T05:04:00;18.50;99.90
26595;DHT22;14238;49.496;8.154;2023-07-09T05:06:26;18.60;99.90
26595;DHT22;14238;49.496;8.154;2023-07-09T05:08:51;18.70;99.90
26595;DHT22;14238;49.496;8.154;2023-07-09T05:11:17;18.80;99.90
26595;DHT22;14238;49.496;8.154;2023-07-09T05:13:42;18.90;99.90
26595;DHT22;14238;49.496;8.154;2023-07-09T05:16:08;19.00;99.90
26595;DHT22;14238;49.496;8.154;2023-07-09T05:18:33;19.00;99.90
26595;DHT22;14238;49.496;8.154;2023-07-09T05:20:59;19.10;99.90
26595;DHT22;14238;49.496;8.154;2023-07-09T05:23:25;19.10;99.90
26595;DHT22;14238;49.496;8.154;2023-07-09T05:25:56;19.30;99.90
26595;DHT22;14238;49.496;8.154;2023-07-09T05:28:22;19.40;99.90
26595;DHT22;14238;49.496;8.154;2023-07-09T05:30:47;19.50;99.90
26595;DHT22;14238;49.496;8.154;2023-07-09T05:33:13;19.60;99.90
26595;DHT22;14238;49.496;8.154;2023-07-09T05:35:39;19.60;99.90
26595;DHT22;14238;49.496;8.154;2023-07-09T05:38:04;19.70;99.90
26595;DHT22;14238;49.496;8.154;2023-07-09T05:40:30;19.80;99.90
26595;DHT22;14238;49.496;8.154;2023-07-09T05:42:55;19.90;99.90
26595;DHT22;14238;49.496;8.154;2023-07-09T05:45:21;20.00;99.90
26595;DHT22;14238;49.496;8.154;2023-07-09T05:47:46;20.10;99.90
26595;DHT22;14238;49.496;8.154;2023-07-09T05:50:12;20.20;99.90
26595;DHT22;14238;49.496;8.154;2023-07-09T05:52:37;20.20;99.90
26595;DHT22;14238;49.496;8.154;2023-07-09T05:55:03;20.40;99.90
26595;DHT22;14238;49.496;8.154;2023-07-09T05:57:29;20.50;99.90
26595;DHT22;14238;49.496;8.154;2023-07-09T05:59:54;20.60;99.90
26595;DHT22;14238;49.496;8.154;2023-07-09T06:02:21;20.60;99.90
26595;DHT22;14238;49.496;8.154;2023-07-09T06:04:46;20.70;99.90
26595;DHT22;14238;49.496;8.154;2023-07-09T06:07:14;20.90;99.90
26595;DHT22;14238;49.496;8.154;2023-07-09T06:09:40;21.10;99.90
26595;DHT22;14238;49.496;8.154;2023-07-09T06:12:06;21.10;99.90
26595;DHT22;14238;49.496;8.154;2023-07-09T06:14:32;21.20;99.90
26595;DHT22;14238;49.496;8.154;2023-07-09T06:16:58;21.20;99.90
26595;DHT22;14238;49.496;8.154;2023-07-09T06:19:24;21.30;99.90
26595;DHT22;14238;49.496;8.154;2023-07-09T06:21:49;21.30;99.90
26595;DHT22;14238;49.496;8.154;2023-07-09T06:24:15;21.40;99.90
26595;DHT22;14238;49.496;8.154;2023-07-09T06:26:41;21.50;99.90
26595;DHT22;14238;49.496;8.154;2023-07-09T06:29:06;21.60;99.90
26595;DHT22;14238;49.496;8.154;2023-07-09T06:31:32;21.80;99.90
26595;DHT22;14238;49.496;8.154;2023-07-09T06:33:57;21.90;99.90
26595;DHT22;14238;49.496;8.154;2023-07-09T06:36:23;21.90;99.90
26595;DHT22;14238;49.496;8.154;2023-07-09T06:38:49;22.00;99.90
26595;DHT22;14238;49.496;8.154;2023-07-09T06:41:15;22.10;99.90
26595;DHT22;14238;49.496;8.154;2023-07-09T06:43:41;22.10;99.90
26595;DHT22;14238;49.496;8.154;2023-07-09T06:46:10;22.20;99.90
26595;DHT22;14238;49.496;8.154;2023-07-09T06:48:35;22.20;99.90
26595;DHT22;14238;49.496;8.154;2023-07-09T06:51:01;22.40;99.90
26595;DHT22;14238;49.496;8.154;2023-07-09T06:53:28;22.50;99.90
26595;DHT22;14238;49.496;8.154;2023-07-09T06:55:55;22.60;99.90
26595;DHT22;14238;49.496;8.154;2023-07-09T06:58:24;22.60;99.90
26595;DHT22;14238;49.496;8.154;2023-07-09T07:00:51;22.70;99.90
26595;DHT22;14238;49.496;8.154;2023-07-09T07:03:17;22.80;99.90
26595;DHT22;14238;49.496;8.154;2023-07-09T07:05:47;22.80;99.90
26595;DHT22;14238;49.496;8.154;2023-07-09T07:08:15;22.90;99.90
26595;DHT22;14238;49.496;8.154;2023-07-09T07:10:41;22.90;99.90
26595;DHT22;14238;49.496;8.154;2023-07-09T07:13:06;23.00;99.90
26595;DHT22;14238;49.496;8.154;2023-07-09T07:15:32;23.00;99.90
26595;DHT22;14238;49.496;8.154;2023-07-09T07:17:58;23.10;99.90
26595;DHT22;14238;49.496;8.154;2023-07-09T07:20:23;23.10;99.90
26595;DHT22;14238;49.496;8.154;2023-07-09T07:22:49;23.30;99.90
26595;DHT22;14238;49.496;8.154;2023-07-09T07:25:15;23.40;99.90
26595;DHT22;14238;49.496;8.154;2023-07-09T07:27:41;23.50;99.90
26595;DHT22;14238;49.496;8.154;2023-07-09T07:30:07;23.50;99.90
26595;DHT22;14238;49.496;8.154;2023-07-09T07:32:35;23.60;99.90
26595;DHT22;14238;49.496;8.154;2023-07-09T07:35:01;23.80;99.90
26595;DHT22;14238;49.496;8.154;2023-07-09T07:37:26;23.90;99.90
26595;DHT22;14238;49.496;8.154;2023-07-09T07:39:52;24.10;99.90
26595;DHT22;14238;49.496;8.154;2023-07-09T07:42:17;24.10;99.90
26595;DHT22;14238;49.496;8.154;2023-07-09T07:44:43;24.30;99.90
26595;DHT22;14238;49.496;8.154;2023-07-09T07:47:09;24.30;99.90
26595;DHT22;14238;49.496;8.154;2023-07-09T07:49:34;24.60;99.90
26595;DHT22;14238;49.496;8.154;2023-07-09T07:52:00;24.70;99.90
26595;DHT22;14238;49.496;8.154;2023-07-09T07:54:29;24.90;99.90
26595;DHT22;14238;49.496;8.154;2023-07-09T07:56:54;25.00;99.90
26595;DHT22;14238;49.496;8.154;2023-07-09T07:59:20;25.10;99.90
26595;DHT22;14238;49.496;8.154;2023-07-09T08:01:45;25.30;99.90
26595;DHT22;14238;49.496;8.154;2023-07-09T08:04:11;25.30;99.90
26595;DHT22;14238;49.496;8.154;2023-07-09T08:06:36;25.30;99.90
26595;DHT22;14238;49.496;8.154;2023-07-09T08:09:02;25.40;99.90
26595;DHT22;14238;49.496;8.154;2023-07-09T08:11:28;25.60;99.90
26595;DHT22;14238;49.496;8.154;2023-07-09T08:13:55;25.80;99.90
26595;DHT22;14238;49.496;8.154;2023-07-09T08:16:20;25.90;99.90
26595;DHT22;14238;49.496;8.154;2023-07-09T08:18:46;25.90;99.90
26595;DHT22;14238;49.496;8.154;2023-07-09T08:21:12;26.20;99.90
26595;DHT22;14238;49.496;8.154;2023-07-09T08:23:37;26.30;99.90
26595;DHT22;14238;49.496;8.154;2023-07-09T08:26:04;26.60;99.90
26595;DHT22;14238;49.496;8.154;2023-07-09T08:28:30;26.90;99.90
26595;DHT22;14238;49.496;8.154;2023-07-09T08:30:56;27.10;99.90
26595;DHT22;14238;49.496;8.154;2023-07-09T08:33:22;27.20;99.90
26595;DHT22;14238;49.496;8.154;2023-07-09T08:35:50;27.40;99.90
26595;DHT22;14238;49.496;8.154;2023-07-09T08:38:15;27.50;99.90
26595;DHT22;14238;49.496;8.154;2023-07-09T08:40:43;27.60;99.90
26595;DHT22;14238;49.496;8.154;2023-07-09T08:46:06;28.00;99.90
26595;DHT22;14238;49.496;8.154;2023-07-09T08:48:34;28.10;99.90
26595;DHT22;14238;49.496;8.154;2023-07-09T08:51:13;28.30;99.90
26595;DHT22;14238;49.496;8.154;2023-07-09T08:56:18;28.60;99.90
26595;DHT22;14238;49.496;8.154;2023-07-09T08:58:45;28.80;99.90
26595;DHT22;14238;49.496;8.154;2023-07-09T09:01:24;29.10;99.90
26595;DHT22;14238;49.496;8.154;2023-07-09T09:03:53;29.10;99.90
26595;DHT22;14238;49.496;8.154;2023-07-09T09:06:24;29.30;99.90
26595;DHT22;14238;49.496;8.154;2023-07-09T09:09:12;29.60;99.90
26595;DHT22;14238;49.496;8.154;2023-07-09T09:11:44;29.90;99.90
26595;DHT22;14238;49.496;8.154;2023-07-09T09:14:45;29.90;99.90
26595;DHT22;14238;49.496;8.154;2023-07-09T09:17:17;29.80;99.90
26595;DHT22;14238;49.496;8.154;2023-07-09T09:19:54;29.80;99.90
26595;DHT22;14238;49.496;8.154;2023-07-09T09:25:31;30.70;99.90
26595;DHT22;14238;49.496;8.154;2023-07-09T09:27:59;30.40;99.90
26595;DHT22;14238;49.496;8.154;2023-07-09T09:30:27;30.60;99.90
26595;DHT22;14238;49.496;8.154;2023-07-09T09:33:01;30.60;99.90
26595;DHT22;14238;49.496;8.154;2023-07-09T09:35:36;30.90;99.90
26595;DHT22;14238;49.496;8.154;2023-07-09T09:38:03;31.10;99.90
26595;DHT22;14238;49.496;8.154;2023-07-09T09:40:35;31.20;99.90
26595;DHT22;14238;49.496;8.154;2023-07-09T09:43:02;31.30;99.90
26595;DHT22;14238;49.496;8.154;2023-07-09T09:45:33;31.60;99.90
26595;DHT22;14238;49.496;8.154;2023-07-09T09:48:17;31.70;99.90
26595;DHT22;14238;49.496;8.154;2023-07-09T09:50:45;31.50;99.90
26595;DHT22;14238;49.496;8.154;2023-07-09T09:53:18;31.60;99.90
26595;DHT22;14238;49.496;8.154;2023-07-09T09:55:45;32.00;99.90
26595;DHT22;14238;49.496;8.154;2023-07-09T09:58:14;32.30;99.90
26595;DHT22;14238;49.496;8.154;2023-07-09T10:00:46;32.20;99.90
26595;DHT22;14238;49.496;8.154;2023-07-09T10:03:13;32.50;99.90
26595;DHT22;14238;49.496;8.154;2023-07-09T10:05:53;32.60;99.90
26595;DHT22;14238;49.496;8.154;2023-07-09T10:11:14;33.10;99.90
26595;DHT22;14238;49.496;8.154;2023-07-09T10:13:44;33.00;99.50
26595;DHT22;14238;49.496;8.154;2023-07-09T10:21:46;33.10;97.80
26595;DHT22;14238;49.496;8.154;2023-07-09T10:29:55;33.10;96.00
26595;DHT22;14238;49.496;8.154;2023-07-09T10:38:33;33.40;94.90
26595;DHT22;14238;49.496;8.154;2023-07-09T10:41:04;33.70;95.30
26595;DHT22;14238;49.496;8.154;2023-07-09T10:43:58;33.60;93.50
26595;DHT22;14238;49.496;8.154;2023-07-09T10:46:27;33.70;93.60
26595;DHT22;14238;49.496;8.154;2023-07-09T10:48:54;33.90;93.20
26595;DHT22;14238;49.496;8.154;2023-07-09T10:51:33;33.80;94.30
26595;DHT22;14238;49.496;8.154;2023-07-09T10:54:04;33.90;94.40
26595;DHT22;14238;49.496;8.154;2023-07-09T10:56:34;33.90;91.90
26595;DHT22;14238;49.496;8.154;2023-07-09T10:59:20;33.80;92.60
26595;DHT22;14238;49.496;8.154;2023-07-09T11:01:55;34.20;92.80
26595;DHT22;14238;49.496;8.154;2023-07-09T11:04:42;34.20;92.60
26595;DHT22;14238;49.496;8.154;2023-07-09T11:07:14;34.30;91.00
26595;DHT22;14238;49.496;8.154;2023-07-09T11:09:45;34.40;92.20
26595;DHT22;14238;49.496;8.154;2023-07-09T11:12:19;34.60;88.10
26595;DHT22;14238;49.496;8.154;2023-07-09T11:14:52;34.80;90.00
26595;DHT22;14238;49.496;8.154;2023-07-09T11:17:20;34.30;90.30
26595;DHT22;14238;49.496;8.154;2023-07-09T11:19:53;34.60;90.00
26595;DHT22;14238;49.496;8.154;2023-07-09T11:22:27;34.60;85.90
26595;DHT22;14238;49.496;8.154;2023-07-09T11:25:27;34.40;89.70
26595;DHT22;14238;49.496;8.154;2023-07-09T11:28:02;34.90;89.30
26595;DHT22;14238;49.496;8.154;2023-07-09T11:30:29;35.00;87.80
26595;DHT22;14238;49.496;8.154;2023-07-09T11:32:58;34.90;87.70
26595;DHT22;14238;49.496;8.154;2023-07-09T11:35:29;35.00;85.00
26595;DHT22;14238;49.496;8.154;2023-07-09T11:37:55;34.90;89.00
26595;DHT22;14238;49.496;8.154;2023-07-09T11:40:22;35.10;86.50
26595;DHT22;14238;49.496;8.154;2023-07-09T11:42:56;35.10;85.00
26595;DHT22;14238;49.496;8.154;2023-07-09T11:45:32;35.10;90.00
26595;DHT22;14238;49.496;8.154;2023-07-09T11:48:03;35.30;85.80
26595;DHT22;14238;49.496;8.154;2023-07-09T11:50:41;35.20;81.50
26595;DHT22;14238;49.496;8.154;2023-07-09T11:55:41;35.40;80.10
26595;DHT22;14238;49.496;8.154;2023-07-09T11:58:10;35.50;83.60
26595;DHT22;14238;49.496;8.154;2023-07-09T12:00:51;35.60;83.40
26595;DHT22;14238;49.496;8.154;2023-07-09T12:03:27;35.60;84.00
26595;DHT22;14238;49.496;8.154;2023-07-09T12:05:55;35.40;80.80
26595;DHT22;14238;49.496;8.154;2023-07-09T12:08:27;35.70;77.90
26595;DHT22;14238;49.496;8.154;2023-07-09T12:10:54;36.00;83.00
26595;DHT22;14238;49.496;8.154;2023-07-09T12:13:19;36.00;79.10
26595;DHT22;14238;49.496;8.154;2023-07-09T12:15:46;36.30;82.10
26595;DHT22;14238;49.496;8.154;2023-07-09T12:18:14;36.30;77.00
26595;DHT22;14238;49.496;8.154;2023-07-09T12:20:45;36.40;75.20
26595;DHT22;14238;49.496;8.154;2023-07-09T12:23:29;36.40;74.10
26595;DHT22;14238;49.496;8.154;2023-07-09T12:25:59;36.50;77.30
26595;DHT22;14238;49.496;8.154;2023-07-09T12:28:27;36.60;74.90
26595;DHT22;14238;49.496;8.154;2023-07-09T12:30:53;36.30;71.00
26595;DHT22;14238;49.496;8.154;2023-07-09T12:33:24;35.90;67.40
26595;DHT22;14238;49.496;8.154;2023-07-09T12:35:58;35.90;69.90
26595;DHT22;14238;49.496;8.154;2023-07-09T12:38:26;36.00;70.10
26595;DHT22;14238;49.496;8.154;2023-07-09T12:40:52;36.10;69.30
26595;DHT22;14238;49.496;8.154;2023-07-09T12:43:26;36.20;71.70
26595;DHT22;14238;49.496;8.154;2023-07-09T12:45:58;35.90;70.90
26595;DHT22;14238;49.496;8.154;2023-07-09T12:48:27;35.40;70.20
26595;DHT22;14238;49.496;8.154;2023-07-09T12:50:58;35.50;69.00
26595;DHT22;14238;49.496;8.154;2023-07-09T12:53:25;35.40;70.20
26595;DHT22;14238;49.496;8.154;2023-07-09T12:55:55;35.30;74.20
26595;DHT22;14238;49.496;8.154;2023-07-09T12:58:23;35.40;71.00
26595;DHT22;14238;49.496;8.154;2023-07-09T13:00:52;35.60;71.70
26595;DHT22;14238;49.496;8.154;2023-07-09T13:03:21;36.20;71.30
26595;DHT22;14238;49.496;8.154;2023-07-09T13:06:01;36.60;69.30
26595;DHT22;14238;49.496;8.154;2023-07-09T13:08:30;36.60;67.50
26595;DHT22;14238;49.496;8.154;2023-07-09T13:10:57;36.70;66.70
26595;DHT22;14238;49.496;8.154;2023-07-09T13:13:24;36.80;65.60
26595;DHT22;14238;49.496;8.154;2023-07-09T13:15:58;37.00;65.80
26595;DHT22;14238;49.496;8.154;2023-07-09T13:18:27;36.80;64.50
26595;DHT22;14238;49.496;8.154;2023-07-09T13:20:56;36.20;64.60
26595;DHT22;14238;49.496;8.154;2023-07-09T13:23:29;36.00;64.00
26595;DHT22;14238;49.496;8.154;2023-07-09T13:25:57;36.10;66.10
26595;DHT22;14238;49.496;8.154;2023-07-09T13:28:30;36.00;67.10
26595;DHT22;14238;49.496;8.154;2023-07-09T13:30:58;36.20;63.80
26595;DHT22;14238;49.496;8.154;2023-07-09T13:33:25;36.30;64.30
26595;DHT22;14238;49.496;8.154;2023-07-09T13:35:50;36.30;64.50
26595;DHT22;14238;49.496;8.154;2023-07-09T13:40:48;35.50;65.70
26595;DHT22;14238;49.496;8.154;2023-07-09T13:43:15;35.30;66.60
26595;DHT22;14238;49.496;8.154;2023-07-09T13:45:41;35.20;64.00
26595;DHT22;14238;49.496;8.154;2023-07-09T13:48:16;35.20;66.70
26595;DHT22;14238;49.496;8.154;2023-07-09T13:50:42;35.20;68.10
26595;DHT22;14238;49.496;8.154;2023-07-09T13:53:15;35.30;68.30
26595;DHT22;14238;49.496;8.154;2023-07-09T13:55:43;35.30;63.50
26595;DHT22;14238;49.496;8.154;2023-07-09T13:58:14;35.40;66.10
26595;DHT22;14238;49.496;8.154;2023-07-09T14:00:41;35.50;68.20
26595;DHT22;14238;49.496;8.154;2023-07-09T14:03:17;35.50;64.10
26595;DHT22;14238;49.496;8.154;2023-07-09T14:05:44;35.60;61.00
26595;DHT22;14238;49.496;8.154;2023-07-09T14:08:11;36.00;64.80
26595;DHT22;14238;49.496;8.154;2023-07-09T14:10:37;36.00;63.40
26595;DHT22;14238;49.496;8.154;2023-07-09T14:13:03;36.00;62.50
26595;DHT22;14238;49.496;8.154;2023-07-09T14:15:28;35.90;63.10
26595;DHT22;14238;49.496;8.154;2023-07-09T14:17:54;36.20;73.70
26595;DHT22;14238;49.496;8.154;2023-07-09T14:20:23;36.40;67.50
26595;DHT22;14238;49.496;8.154;2023-07-09T14:22:50;36.40;60.60
26595;DHT22;14238;49.496;8.154;2023-07-09T14:25:20;36.40;64.90
26595;DHT22;14238;49.496;8.154;2023-07-09T14:27:48;36.10;60.80
26595;DHT22;14238;49.496;8.154;2023-07-09T14:30:15;36.10;62.10
26595;DHT22;14238;49.496;8.154;2023-07-09T14:32:41;35.80;60.40
26595;DHT22;14238;49.496;8.154;2023-07-09T14:37:42;35.80;61.80
26595;DHT22;14238;49.496;8.154;2023-07-09T14:40:09;35.80;64.30
26595;DHT22;14238;49.496;8.154;2023-07-09T14:42:36;35.70;62.30
26595;DHT22;14238;49.496;8.154;2023-07-09T14:45:03;35.50;62.20
26595;DHT22;14238;49.496;8.154;2023-07-09T14:49:54;35.30;60.70
26595;DHT22;14238;49.496;8.154;2023-07-09T14:52:20;35.20;62.20
26595;DHT22;14238;49.496;8.154;2023-07-09T14:54:49;35.20;62.60
26595;DHT22;14238;49.496;8.154;2023-07-09T14:57:21;35.10;66.50
26595;DHT22;14238;49.496;8.154;2023-07-09T14:59:48;35.00;66.80
26595;DHT22;14238;49.496;8.154;2023-07-09T15:04:57;34.70;63.50
26595;DHT22;14238;49.496;8.154;2023-07-09T15:07:23;34.50;66.50
26595;DHT22;14238;49.496;8.154;2023-07-09T15:09:55;34.70;61.70
26595;DHT22;14238;49.496;8.154;2023-07-09T15:12:27;34.60;62.30
26595;DHT22;14238;49.496;8.154;2023-07-09T15:15:06;34.70;64.30
26595;DHT22;14238;49.496;8.154;2023-07-09T15:17:37;34.60;63.90
26595;DHT22;14238;49.496;8.154;2023-07-09T15:20:02;34.30;74.20
26595;DHT22;14238;49.496;8.154;2023-07-09T15:22:32;34.10;70.10
26595;DHT22;14238;49.496;8.154;2023-07-09T15:24:58;34.20;69.60
26595;DHT22;14238;49.496;8.154;2023-07-09T15:27:24;34.10;67.60
26595;DHT22;14238;49.496;8.154;2023-07-09T15:29:50;34.10;66.20
26595;DHT22;14238;49.496;8.154;2023-07-09T15:32:16;34.30;72.90
26595;DHT22;14238;49.496;8.154;2023-07-09T15:34:42;34.30;66.80
26595;DHT22;14238;49.496;8.154;2023-07-09T15:37:16;34.30;64.80
26595;DHT22;14238;49.496;8.154;2023-07-09T15:39:42;34.20;66.80
26595;DHT22;14238;49.496;8.154;2023-07-09T15:42:13;34.10;71.90
26595;DHT22;14238;49.496;8.154;2023-07-09T15:44:39;34.00;77.30
26595;DHT22;14238;49.496;8.154;2023-07-09T15:47:05;34.00;90.60
26595;DHT22;14238;49.496;8.154;2023-07-09T15:49:34;33.60;90.10
26595;DHT22;14238;49.496;8.154;2023-07-09T15:52:00;33.70;92.80
26595;DHT22;14238;49.496;8.154;2023-07-09T15:54:28;33.80;88.00
26595;DHT22;14238;49.496;8.154;2023-07-09T15:56:53;33.90;91.30
26595;DHT22;14238;49.496;8.154;2023-07-09T15:59:35;33.60;92.80
26595;DHT22;14238;49.496;8.154;2023-07-09T16:02:08;33.30;94.80
26595;DHT22;14238;49.496;8.154;2023-07-09T16:04:34;33.10;95.90
26595;DHT22;14238;49.496;8.154;2023-07-09T16:07:00;33.00;95.30
26595;DHT22;14238;49.496;8.154;2023-07-09T16:09:25;32.80;97.20
26595;DHT22;14238;49.496;8.154;2023-07-09T16:11:52;32.60;96.80
26595;DHT22;14238;49.496;8.154;2023-07-09T16:14:29;32.30;97.50
26595;DHT22;14238;49.496;8.154;2023-07-09T16:16:57;32.10;98.00
26595;DHT22;14238;49.496;8.154;2023-07-09T16:19:25;31.80;98.40
26595;DHT22;14238;49.496;8.154;2023-07-09T16:21:54;31.60;99.00
26595;DHT22;14238;49.496;8.154;2023-07-09T16:24:26;31.50;99.20